sensor_id;sensor_type;location;lat;lon;timestamp;P1;durP1;ratioP1;P2;durP2;ratioP2
41631;SDS011;37452;51.938;4.624;2023-08-30T00:01:55;6.75;;;3.40;;
41631;SDS011;37452;51.938;4.624;2023-08-30T00:04:21;6.22;;;3.38;;
41631;SDS011;37452;51.938;4.624;2023-08-30T00:06:47;5.95;;;3.13;;
41631;SDS011;37452;51.938;4.624;2023-08-30T00:09:13;5.68;;;3.00;;
41631;SDS011;37452;51.938;4.624;2023-08-30T00:11:38;7.72;;;3.60;;
41631;SDS011;37452;51.938;4.624;2023-08-30T00:14:07;7.20;;;3.17;;
41631;SDS011;37452;51.938;4.624;2023-08-30T00:16:32;5.38;;;2.97;;
41631;SDS011;37452;51.938;4.624;2023-08-30T00:18:59;9.23;;;3.47;;
41631;SDS011;37452;51.938;4.624;2023-08-30T00:21:25;6.25;;;3.50;;
41631;SDS011;37452;51.938;4.624;2023-08-30T00:23:50;7.80;;;4.22;;
41631;SDS011;37452;51.938;4.624;2023-08-30T00:26:16;6.35;;;3.90;;
41631;SDS011;37452;51.938;4.624;2023-08-30T00:28:42;6.82;;;3.72;;
41631;SDS011;37452;51.938;4.624;2023-08-30T00:31:07;6.55;;;3.67;;
41631;SDS011;37452;51.938;4.624;2023-08-30T00:33:32;5.97;;;3.67;;
41631;SDS011;37452;51.938;4.624;2023-08-30T00:35:58;9.38;;;4.15;;
41631;SDS011;37452;51.938;4.624;2023-08-30T00:38:25;7.72;;;4.13;;
41631;SDS011;37452;51.938;4.624;2023-08-30T00:40:52;8.57;;;4.15;;
41631;SDS011;37452;51.938;4.624;2023-08-30T00:43:17;9.02;;;3.50;;
41631;SDS011;37452;51.938;4.624;2023-08-30T00:45:43;7.57;;;4.03;;
41631;SDS011;37452;51.938;4.624;2023-08-30T00:48:09;7.55;;;4.00;;
41631;SDS011;37452;51.938;4.624;2023-08-30T00:50:35;9.05;;;4.25;;
41631;SDS011;37452;51.938;4.624;2023-08-30T00:53:02;7.18;;;4.38;;
41631;SDS011;37452;51.938;4.624;2023-08-30T00:55:31;8.15;;;3.85;;
41631;SDS011;37452;51.938;4.624;2023-08-30T00:57:59;5.93;;;3.65;;
41631;SDS011;37452;51.938;4.624;2023-08-30T01:00:26;6.63;;;3.90;;
41631;SDS011;37452;51.938;4.624;2023-08-30T01:02:53;7.95;;;4.47;;
41631;SDS011;37452;51.938;4.624;2023-08-30T01:05:19;7.82;;;4.43;;
41631;SDS011;37452;51.938;4.624;2023-08-30T01:07:44;8.23;;;4.53;;
41631;SDS011;37452;51.938;4.624;2023-08-30T01:10:09;7.75;;;3.92;;
41631;SDS011;37452;51.938;4.624;2023-08-30T01:12:39;7.90;;;4.28;;
41631;SDS011;37452;51.938;4.624;2023-08-30T01:15:09;8.95;;;5.00;;
41631;SDS011;37452;51.938;4.624;2023-08-30T01:17:41;7.15;;;4.32;;
41631;SDS011;37452;51.938;4.624;2023-08-30T01:20:08;10.82;;;4.88;;
41631;SDS011;37452;51.938;4.624;2023-08-30T01:28:32;7.78;;;4.65;;
41631;SDS011;37452;51.938;4.624;2023-08-30T01:30:58;8.98;;;5.22;;
41631;SDS011;37452;51.938;4.624;2023-08-30T01:33:25;9.00;;;4.97;;
41631;SDS011;37452;51.938;4.624;2023-08-30T01:35:57;7.57;;;4.80;;
41631;SDS011;37452;51.938;4.624;2023-08-30T01:38:25;9.23;;;5.10;;
41631;SDS011;37452;51.938;4.624;2023-08-30T01:40:52;11.07;;;5.10;;
41631;SDS011;37452;51.938;4.624;2023-08-30T01:43:19;8.35;;;4.97;;
41631;SDS011;37452;51.938;4.624;2023-08-30T01:45:46;11.27;;;4.97;;
41631;SDS011;37452;51.938;4.624;2023-08-30T01:48:13;10.07;;;5.43;;
41631;SDS011;37452;51.938;4.624;2023-08-30T01:50:40;9.27;;;5.78;;
41631;SDS011;37452;51.938;4.624;2023-08-30T01:53:07;10.88;;;5.88;;
41631;SDS011;37452;51.938;4.624;2023-08-30T01:55:33;9.77;;;5.07;;
41631;SDS011;37452;51.938;4.624;2023-08-30T01:58:00;10.00;;;5.05;;
41631;SDS011;37452;51.938;4.624;2023-08-30T02:00:25;13.20;;;6.15;;
41631;SDS011;37452;51.938;4.624;2023-08-30T02:02:50;9.85;;;5.97;;
41631;SDS011;37452;51.938;4.624;2023-08-30T02:05:16;9.80;;;6.00;;
41631;SDS011;37452;51.938;4.624;2023-08-30T02:10:08;11.05;;;6.05;;
41631;SDS011;37452;51.938;4.624;2023-08-30T02:12:39;10.15;;;5.80;;
41631;SDS011;37452;51.938;4.624;2023-08-30T02:15:09;11.88;;;6.57;;
41631;SDS011;37452;51.938;4.624;2023-08-30T02:17:37;13.68;;;6.10;;
41631;SDS011;37452;51.938;4.624;2023-08-30T02:20:03;12.55;;;6.20;;
41631;SDS011;37452;51.938;4.624;2023-08-30T02:22:30;12.68;;;6.57;;
41631;SDS011;37452;51.938;4.624;2023-08-30T02:24:56;11.27;;;6.05;;
41631;SDS011;37452;51.938;4.624;2023-08-30T02:27:22;11.00;;;6.10;;
41631;SDS011;37452;51.938;4.624;2023-08-30T02:29:48;11.50;;;5.95;;
41631;SDS011;37452;51.938;4.624;2023-08-30T02:32:13;11.68;;;5.45;;
41631;SDS011;37452;51.938;4.624;2023-08-30T02:34:40;10.90;;;6.28;;
41631;SDS011;37452;51.938;4.624;2023-08-30T02:37:05;12.38;;;6.30;;
41631;SDS011;37452;51.938;4.624;2023-08-30T02:39:30;13.13;;;6.32;;
41631;SDS011;37452;51.938;4.624;2023-08-30T02:41:56;10.93;;;6.40;;
41631;SDS011;37452;51.938;4.624;2023-08-30T02:44:21;12.75;;;6.40;;
41631;SDS011;37452;51.938;4.624;2023-08-30T02:46:46;12.32;;;6.50;;
41631;SDS011;37452;51.938;4.624;2023-08-30T02:49:12;11.68;;;6.10;;
41631;SDS011;37452;51.938;4.624;2023-08-30T02:51:37;11.52;;;7.18;;
41631;SDS011;37452;51.938;4.624;2023-08-30T02:54:02;10.68;;;6.25;;
41631;SDS011;37452;51.938;4.624;2023-08-30T02:56:28;12.93;;;6.88;;
41631;SDS011;37452;51.938;4.624;2023-08-30T02:58:53;11.57;;;6.65;;
41631;SDS011;37452;51.938;4.624;2023-08-30T03:01:19;11.40;;;6.25;;
41631;SDS011;37452;51.938;4.624;2023-08-30T03:03:45;9.65;;;5.45;;
41631;SDS011;37452;51.938;4.624;2023-08-30T03:06:11;11.50;;;6.03;;
41631;SDS011;37452;51.938;4.624;2023-08-30T03:08:37;12.55;;;6.53;;
41631;SDS011;37452;51.938;4.624;2023-08-30T03:11:12;14.13;;;6.45;;
41631;SDS011;37452;51.938;4.624;2023-08-30T03:13:38;13.85;;;6.85;;
41631;SDS011;37452;51.938;4.624;2023-08-30T03:16:16;12.77;;;6.57;;
41631;SDS011;37452;51.938;4.624;2023-08-30T03:18:42;16.58;;;7.38;;
41631;SDS011;37452;51.938;4.624;2023-08-30T03:21:09;13.93;;;7.05;;
41631;SDS011;37452;51.938;4.624;2023-08-30T03:23:35;11.10;;;5.90;;
41631;SDS011;37452;51.938;4.624;2023-08-30T03:26:34;12.25;;;5.93;;
41631;SDS011;37452;51.938;4.624;2023-08-30T03:28:52;11.25;;;6.85;;
41631;SDS011;37452;51.938;4.624;2023-08-30T03:31:18;11.77;;;6.43;;
41631;SDS011;37452;51.938;4.624;2023-08-30T03:33:45;15.73;;;7.75;;
41631;SDS011;37452;51.938;4.624;2023-08-30T03:36:11;11.95;;;6.88;;
41631;SDS011;37452;51.938;4.624;2023-08-30T03:38:39;13.10;;;7.15;;
41631;SDS011;37452;51.938;4.624;2023-08-30T03:41:05;14.23;;;7.68;;
41631;SDS011;37452;51.938;4.624;2023-08-30T03:43:31;12.48;;;6.95;;
41631;SDS011;37452;51.938;4.624;2023-08-30T03:45:57;12.82;;;7.30;;
41631;SDS011;37452;51.938;4.624;2023-08-30T03:48:24;12.93;;;7.22;;
41631;SDS011;37452;51.938;4.624;2023-08-30T03:50:50;19.40;;;8.60;;
41631;SDS011;37452;51.938;4.624;2023-08-30T03:53:15;12.82;;;7.18;;
41631;SDS011;37452;51.938;4.624;2023-08-30T03:55:40;16.58;;;7.25;;
41631;SDS011;37452;51.938;4.624;2023-08-30T03:58:06;11.98;;;7.13;;
41631;SDS011;37452;51.938;4.624;2023-08-30T04:00:32;15.30;;;8.07;;
41631;SDS011;37452;51.938;4.624;2023-08-30T04:03:01;13.93;;;7.43;;
41631;SDS011;37452;51.938;4.624;2023-08-30T04:05:26;14.30;;;7.63;;
41631;SDS011;37452;51.938;4.624;2023-08-30T04:07:51;11.75;;;6.35;;
41631;SDS011;37452;51.938;4.624;2023-08-30T04:10:17;15.82;;;7.65;;
41631;SDS011;37452;51.938;4.624;2023-08-30T04:12:42;12.63;;;6.55;;
41631;SDS011;37452;51.938;4.624;2023-08-30T04:15:08;13.43;;;7.43;;
41631;SDS011;37452;51.938;4.624;2023-08-30T04:17:34;13.32;;;7.30;;
41631;SDS011;37452;51.938;4.624;2023-08-30T04:19:59;13.77;;;7.63;;
41631;SDS011;37452;51.938;4.624;2023-08-30T04:22:25;14.85;;;7.80;;
41631;SDS011;37452;51.938;4.624;2023-08-30T04:24:51;12.88;;;7.18;;
41631;SDS011;37452;51.938;4.624;2023-08-30T04:27:16;12.63;;;7.00;;
41631;SDS011;37452;51.938;4.624;2023-08-30T04:29:41;13.80;;;6.43;;
41631;SDS011;37452;51.938;4.624;2023-08-30T04:32:10;12.75;;;7.15;;
41631;SDS011;37452;51.938;4.624;2023-08-30T04:34:35;18.33;;;7.55;;
41631;SDS011;37452;51.938;4.624;2023-08-30T04:37:00;13.27;;;7.35;;
41631;SDS011;37452;51.938;4.624;2023-08-30T04:39:26;14.77;;;7.35;;
41631;SDS011;37452;51.938;4.624;2023-08-30T04:41:51;16.00;;;7.47;;
41631;SDS011;37452;51.938;4.624;2023-08-30T04:44:17;14.50;;;7.65;;
41631;SDS011;37452;51.938;4.624;2023-08-30T04:46:44;12.35;;;6.80;;
41631;SDS011;37452;51.938;4.624;2023-08-30T04:49:09;12.55;;;7.25;;
41631;SDS011;37452;51.938;4.624;2023-08-30T04:51:34;14.75;;;7.55;;
41631;SDS011;37452;51.938;4.624;2023-08-30T04:54:00;13.57;;;7.53;;
41631;SDS011;37452;51.938;4.624;2023-08-30T04:56:25;12.43;;;7.25;;
41631;SDS011;37452;51.938;4.624;2023-08-30T04:58:51;12.95;;;7.50;;
41631;SDS011;37452;51.938;4.624;2023-08-30T05:01:16;13.18;;;7.70;;
41631;SDS011;37452;51.938;4.624;2023-08-30T05:03:42;14.77;;;7.53;;
41631;SDS011;37452;51.938;4.624;2023-08-30T05:06:07;12.55;;;7.78;;
41631;SDS011;37452;51.938;4.624;2023-08-30T05:08:33;17.00;;;7.97;;
41631;SDS011;37452;51.938;4.624;2023-08-30T05:10:58;14.73;;;8.68;;
41631;SDS011;37452;51.938;4.624;2023-08-30T05:13:23;13.85;;;8.20;;
41631;SDS011;37452;51.938;4.624;2023-08-30T05:15:49;16.17;;;8.43;;
41631;SDS011;37452;51.938;4.624;2023-08-30T05:18:14;16.63;;;8.30;;
41631;SDS011;37452;51.938;4.624;2023-08-30T05:20:40;16.38;;;9.30;;
41631;SDS011;37452;51.938;4.624;2023-08-30T05:23:05;16.08;;;8.90;;
41631;SDS011;37452;51.938;4.624;2023-08-30T05:25:30;13.13;;;8.45;;
41631;SDS011;37452;51.938;4.624;2023-08-30T05:27:56;14.00;;;8.35;;
41631;SDS011;37452;51.938;4.624;2023-08-30T05:30:21;13.95;;;8.45;;
41631;SDS011;37452;51.938;4.624;2023-08-30T05:32:46;15.25;;;8.07;;
41631;SDS011;37452;51.938;4.624;2023-08-30T05:35:12;14.13;;;8.77;;
41631;SDS011;37452;51.938;4.624;2023-08-30T05:37:37;12.43;;;7.85;;
41631;SDS011;37452;51.938;4.624;2023-08-30T05:40:02;13.98;;;8.40;;
41631;SDS011;37452;51.938;4.624;2023-08-30T05:42:28;15.07;;;8.57;;
41631;SDS011;37452;51.938;4.624;2023-08-30T05:44:54;14.13;;;8.93;;
41631;SDS011;37452;51.938;4.624;2023-08-30T05:47:21;17.02;;;9.65;;
41631;SDS011;37452;51.938;4.624;2023-08-30T05:49:46;17.92;;;9.15;;
41631;SDS011;37452;51.938;4.624;2023-08-30T05:52:12;15.13;;;8.80;;
41631;SDS011;37452;51.938;4.624;2023-08-30T05:54:37;12.88;;;8.68;;
41631;SDS011;37452;51.938;4.624;2023-08-30T05:57:03;19.40;;;10.15;;
41631;SDS011;37452;51.938;4.624;2023-08-30T05:59:28;18.38;;;10.32;;
41631;SDS011;37452;51.938;4.624;2023-08-30T06:01:54;16.58;;;10.02;;
41631;SDS011;37452;51.938;4.624;2023-08-30T06:04:19;15.50;;;9.32;;
41631;SDS011;37452;51.938;4.624;2023-08-30T06:06:45;14.95;;;8.90;;
41631;SDS011;37452;51.938;4.624;2023-08-30T06:09:11;13.85;;;8.45;;
41631;SDS011;37452;51.938;4.624;2023-08-30T06:11:39;16.08;;;8.73;;
41631;SDS011;37452;51.938;4.624;2023-08-30T06:14:05;17.88;;;8.93;;
41631;SDS011;37452;51.938;4.624;2023-08-30T06:16:31;17.13;;;9.20;;
41631;SDS011;37452;51.938;4.624;2023-08-30T06:18:56;16.15;;;9.18;;
41631;SDS011;37452;51.938;4.624;2023-08-30T06:21:24;16.42;;;9.68;;
41631;SDS011;37452;51.938;4.624;2023-08-30T06:23:49;15.20;;;9.05;;
41631;SDS011;37452;51.938;4.624;2023-08-30T06:26:15;15.77;;;9.40;;
41631;SDS011;37452;51.938;4.624;2023-08-30T06:28:40;15.75;;;10.10;;
41631;SDS011;37452;51.938;4.624;2023-08-30T06:31:06;17.30;;;10.77;;
41631;SDS011;37452;51.938;4.624;2023-08-30T06:33:31;13.57;;;9.23;;
41631;SDS011;37452;51.938;4.624;2023-08-30T06:35:56;14.60;;;9.48;;
41631;SDS011;37452;51.938;4.624;2023-08-30T06:38:22;18.20;;;11.10;;
41631;SDS011;37452;51.938;4.624;2023-08-30T06:40:47;18.05;;;11.00;;
41631;SDS011;37452;51.938;4.624;2023-08-30T06:43:12;19.70;;;10.38;;
41631;SDS011;37452;51.938;4.624;2023-08-30T06:45:44;20.48;;;10.73;;
41631;SDS011;37452;51.938;4.624;2023-08-30T06:48:09;18.92;;;11.32;;
41631;SDS011;37452;51.938;4.624;2023-08-30T06:50:35;16.60;;;10.07;;
41631;SDS011;37452;51.938;4.624;2023-08-30T06:53:01;16.33;;;10.52;;
41631;SDS011;37452;51.938;4.624;2023-08-30T06:55:28;17.73;;;10.40;;
41631;SDS011;37452;51.938;4.624;2023-08-30T06:57:54;14.93;;;9.32;;
41631;SDS011;37452;51.938;4.624;2023-08-30T07:00:20;15.50;;;8.65;;
41631;SDS011;37452;51.938;4.624;2023-08-30T07:02:45;13.27;;;8.45;;
41631;SDS011;37452;51.938;4.624;2023-08-30T07:05:14;14.82;;;9.00;;
41631;SDS011;37452;51.938;4.624;2023-08-30T07:07:39;12.90;;;8.38;;
41631;SDS011;37452;51.938;4.624;2023-08-30T07:10:05;10.55;;;7.22;;
41631;SDS011;37452;51.938;4.624;2023-08-30T07:12:31;11.75;;;7.28;;
41631;SDS011;37452;51.938;4.624;2023-08-30T07:14:56;10.20;;;6.55;;
41631;SDS011;37452;51.938;4.624;2023-08-30T07:17:22;11.27;;;7.07;;
41631;SDS011;37452;51.938;4.624;2023-08-30T07:19:48;10.98;;;5.85;;
41631;SDS011;37452;51.938;4.624;2023-08-30T07:22:13;10.57;;;6.13;;
41631;SDS011;37452;51.938;4.624;2023-08-30T07:24:41;10.88;;;5.57;;
41631;SDS011;37452;51.938;4.624;2023-08-30T07:27:07;11.68;;;5.72;;
41631;SDS011;37452;51.938;4.624;2023-08-30T07:29:33;10.30;;;5.80;;
41631;SDS011;37452;51.938;4.624;2023-08-30T07:31:58;9.38;;;6.00;;
41631;SDS011;37452;51.938;4.624;2023-08-30T07:34:24;8.48;;;5.45;;
41631;SDS011;37452;51.938;4.624;2023-08-30T07:36:49;8.82;;;5.28;;
41631;SDS011;37452;51.938;4.624;2023-08-30T07:39:14;7.07;;;5.03;;
41631;SDS011;37452;51.938;4.624;2023-08-30T07:41:40;8.75;;;5.22;;
41631;SDS011;37452;51.938;4.624;2023-08-30T07:44:05;8.65;;;5.40;;
41631;SDS011;37452;51.938;4.624;2023-08-30T07:46:30;8.85;;;5.28;;
41631;SDS011;37452;51.938;4.624;2023-08-30T07:48:56;10.63;;;5.72;;
41631;SDS011;37452;51.938;4.624;2023-08-30T07:51:21;10.52;;;6.15;;
41631;SDS011;37452;51.938;4.624;2023-08-30T07:53:47;9.95;;;6.07;;
41631;SDS011;37452;51.938;4.624;2023-08-30T07:56:12;10.45;;;6.28;;
41631;SDS011;37452;51.938;4.624;2023-08-30T07:58:37;8.50;;;5.50;;
41631;SDS011;37452;51.938;4.624;2023-08-30T08:01:03;8.60;;;6.18;;
41631;SDS011;37452;51.938;4.624;2023-08-30T08:03:28;11.70;;;6.75;;
41631;SDS011;37452;51.938;4.624;2023-08-30T08:05:53;10.77;;;6.82;;
41631;SDS011;37452;51.938;4.624;2023-08-30T08:08:19;12.50;;;7.60;;
41631;SDS011;37452;51.938;4.624;2023-08-30T08:10:44;10.68;;;7.63;;
41631;SDS011;37452;51.938;4.624;2023-08-30T08:13:10;10.45;;;7.47;;
41631;SDS011;37452;51.938;4.624;2023-08-30T08:15:35;13.52;;;7.45;;
41631;SDS011;37452;51.938;4.624;2023-08-30T08:18:01;10.82;;;7.47;;
41631;SDS011;37452;51.938;4.624;2023-08-30T08:20:28;10.82;;;7.55;;
41631;SDS011;37452;51.938;4.624;2023-08-30T08:22:54;10.93;;;7.22;;
41631;SDS011;37452;51.938;4.624;2023-08-30T08:25:20;11.38;;;7.50;;
41631;SDS011;37452;51.938;4.624;2023-08-30T08:27:47;9.63;;;6.68;;
41631;SDS011;37452;51.938;4.624;2023-08-30T08:30:12;10.88;;;7.65;;
41631;SDS011;37452;51.938;4.624;2023-08-30T08:32:38;13.55;;;7.93;;
41631;SDS011;37452;51.938;4.624;2023-08-30T08:35:03;11.32;;;7.22;;
41631;SDS011;37452;51.938;4.624;2023-08-30T08:37:29;12.82;;;8.20;;
41631;SDS011;37452;51.938;4.624;2023-08-30T08:39:56;13.95;;;8.43;;
41631;SDS011;37452;51.938;4.624;2023-08-30T08:42:21;14.63;;;8.38;;
41631;SDS011;37452;51.938;4.624;2023-08-30T08:44:47;11.63;;;8.23;;
41631;SDS011;37452;51.938;4.624;2023-08-30T08:47:15;11.75;;;8.27;;
41631;SDS011;37452;51.938;4.624;2023-08-30T08:49:42;13.77;;;8.55;;
41631;SDS011;37452;51.938;4.624;2023-08-30T08:52:08;11.00;;;8.13;;
41631;SDS011;37452;51.938;4.624;2023-08-30T08:54:35;11.70;;;8.13;;
41631;SDS011;37452;51.938;4.624;2023-08-30T08:57:05;10.90;;;7.40;;
41631;SDS011;37452;51.938;4.624;2023-08-30T08:59:32;9.80;;;7.50;;
41631;SDS011;37452;51.938;4.624;2023-08-30T09:01:58;9.23;;;7.18;;
41631;SDS011;37452;51.938;4.624;2023-08-30T09:04:25;8.80;;;6.18;;
41631;SDS011;37452;51.938;4.624;2023-08-30T09:06:51;8.25;;;6.55;;
41631;SDS011;37452;51.938;4.624;2023-08-30T09:09:16;6.35;;;3.70;;
41631;SDS011;37452;51.938;4.624;2023-08-30T09:11:42;4.78;;;3.45;;
41631;SDS011;37452;51.938;4.624;2023-08-30T09:14:08;4.80;;;2.95;;
41631;SDS011;37452;51.938;4.624;2023-08-30T09:16:34;6.20;;;2.75;;
41631;SDS011;37452;51.938;4.624;2023-08-30T09:19:00;7.03;;;2.63;;
41631;SDS011;37452;51.938;4.624;2023-08-30T09:21:28;3.45;;;1.85;;
41631;SDS011;37452;51.938;4.624;2023-08-30T09:24:00;6.60;;;2.20;;
41631;SDS011;37452;51.938;4.624;2023-08-30T09:26:26;4.50;;;1.80;;
41631;SDS011;37452;51.938;4.624;2023-08-30T09:29:00;5.22;;;2.00;;
41631;SDS011;37452;51.938;4.624;2023-08-30T09:31:33;4.90;;;1.95;;
41631;SDS011;37452;51.938;4.624;2023-08-30T09:34:00;6.35;;;1.77;;
41631;SDS011;37452;51.938;4.624;2023-08-30T09:36:27;4.32;;;1.58;;
41631;SDS011;37452;51.938;4.624;2023-08-30T09:38:58;5.55;;;1.88;;
41631;SDS011;37452;51.938;4.624;2023-08-30T09:41:24;6.53;;;1.90;;
41631;SDS011;37452;51.938;4.624;2023-08-30T09:43:50;6.82;;;1.92;;
41631;SDS011;37452;51.938;4.624;2023-08-30T09:46:15;5.53;;;2.33;;
41631;SDS011;37452;51.938;4.624;2023-08-30T09:48:40;6.57;;;2.40;;
41631;SDS011;37452;51.938;4.624;2023-08-30T09:51:07;5.43;;;1.80;;
41631;SDS011;37452;51.938;4.624;2023-08-30T09:53:33;7.40;;;2.20;;
41631;SDS011;37452;51.938;4.624;2023-08-30T09:56:07;6.68;;;2.30;;
41631;SDS011;37452;51.938;4.624;2023-08-30T09:58:36;5.75;;;2.10;;
41631;SDS011;37452;51.938;4.624;2023-08-30T10:01:02;5.97;;;2.30;;
41631;SDS011;37452;51.938;4.624;2023-08-30T10:03:29;7.38;;;1.67;;
41631;SDS011;37452;51.938;4.624;2023-08-30T10:05:55;10.52;;;2.10;;
41631;SDS011;37452;51.938;4.624;2023-08-30T10:08:23;6.35;;;2.00;;
41631;SDS011;37452;51.938;4.624;2023-08-30T10:10:54;7.93;;;1.55;;
41631;SDS011;37452;51.938;4.624;2023-08-30T10:13:20;4.43;;;1.75;;
41631;SDS011;37452;51.938;4.624;2023-08-30T10:15:47;8.52;;;1.70;;
41631;SDS011;37452;51.938;4.624;2023-08-30T10:18:18;4.82;;;1.58;;
41631;SDS011;37452;51.938;4.624;2023-08-30T10:20:45;9.02;;;2.30;;
41631;SDS011;37452;51.938;4.624;2023-08-30T10:23:12;9.80;;;2.47;;
41631;SDS011;37452;51.938;4.624;2023-08-30T10:25:38;6.68;;;2.33;;
41631;SDS011;37452;51.938;4.624;2023-08-30T10:28:06;10.98;;;3.28;;
41631;SDS011;37452;51.938;4.624;2023-08-30T10:30:32;6.43;;;1.58;;
41631;SDS011;37452;51.938;4.624;2023-08-30T10:32:58;6.85;;;2.00;;
41631;SDS011;37452;51.938;4.624;2023-08-30T10:35:24;8.02;;;2.10;;
41631;SDS011;37452;51.938;4.624;2023-08-30T10:37:56;7.15;;;2.20;;
41631;SDS011;37452;51.938;4.624;2023-08-30T10:40:24;8.05;;;1.95;;
41631;SDS011;37452;51.938;4.624;2023-08-30T10:43:02;11.30;;;2.50;;
41631;SDS011;37452;51.938;4.624;2023-08-30T10:45:28;8.98;;;2.70;;
41631;SDS011;37452;51.938;4.624;2023-08-30T10:47:55;8.95;;;2.60;;
41631;SDS011;37452;51.938;4.624;2023-08-30T10:50:32;8.05;;;2.30;;
41631;SDS011;37452;51.938;4.624;2023-08-30T10:52:59;10.00;;;2.60;;
41631;SDS011;37452;51.938;4.624;2023-08-30T10:55:24;9.98;;;2.63;;
41631;SDS011;37452;51.938;4.624;2023-08-30T10:58:00;9.82;;;2.30;;
41631;SDS011;37452;51.938;4.624;2023-08-30T11:00:28;5.00;;;1.70;;
41631;SDS011;37452;51.938;4.624;2023-08-30T11:02:54;10.02;;;2.17;;
41631;SDS011;37452;51.938;4.624;2023-08-30T11:05:21;7.40;;;2.08;;
41631;SDS011;37452;51.938;4.624;2023-08-30T11:07:50;8.43;;;1.90;;
41631;SDS011;37452;51.938;4.624;2023-08-30T11:10:16;7.15;;;2.10;;
41631;SDS011;37452;51.938;4.624;2023-08-30T11:12:43;10.27;;;2.25;;
41631;SDS011;37452;51.938;4.624;2023-08-30T11:15:10;6.65;;;1.60;;
41631;SDS011;37452;51.938;4.624;2023-08-30T11:17:36;5.85;;;1.65;;
41631;SDS011;37452;51.938;4.624;2023-08-30T11:20:15;7.38;;;1.88;;
41631;SDS011;37452;51.938;4.624;2023-08-30T11:22:46;5.32;;;1.42;;
41631;SDS011;37452;51.938;4.624;2023-08-30T11:25:13;6.43;;;1.75;;
41631;SDS011;37452;51.938;4.624;2023-08-30T11:27:40;8.48;;;1.80;;
41631;SDS011;37452;51.938;4.624;2023-08-30T11:30:07;6.00;;;1.77;;
41631;SDS011;37452;51.938;4.624;2023-08-30T11:32:38;4.57;;;1.20;;
41631;SDS011;37452;51.938;4.624;2023-08-30T11:35:04;9.18;;;2.03;;
41631;SDS011;37452;51.938;4.624;2023-08-30T11:37:31;7.65;;;2.08;;
41631;SDS011;37452;51.938;4.624;2023-08-30T11:39:58;8.43;;;1.60;;
41631;SDS011;37452;51.938;4.624;2023-08-30T11:42:24;9.15;;;1.90;;
41631;SDS011;37452;51.938;4.624;2023-08-30T11:44:50;6.20;;;1.20;;
41631;SDS011;37452;51.938;4.624;2023-08-30T11:47:20;6.00;;;1.77;;
41631;SDS011;37452;51.938;4.624;2023-08-30T11:49:48;10.13;;;1.95;;
41631;SDS011;37452;51.938;4.624;2023-08-30T11:52:15;6.78;;;1.45;;
41631;SDS011;37452;51.938;4.624;2023-08-30T11:54:41;5.22;;;1.40;;
41631;SDS011;37452;51.938;4.624;2023-08-30T11:57:07;13.32;;;2.53;;
41631;SDS011;37452;51.938;4.624;2023-08-30T11:59:34;7.18;;;1.35;;
41631;SDS011;37452;51.938;4.624;2023-08-30T12:02:00;5.55;;;1.65;;
41631;SDS011;37452;51.938;4.624;2023-08-30T12:04:26;9.32;;;1.55;;
41631;SDS011;37452;51.938;4.624;2023-08-30T12:06:52;6.03;;;1.27;;
41631;SDS011;37452;51.938;4.624;2023-08-30T12:09:21;9.43;;;1.88;;
41631;SDS011;37452;51.938;4.624;2023-08-30T12:11:47;4.38;;;1.25;;
41631;SDS011;37452;51.938;4.624;2023-08-30T12:14:16;4.53;;;1.05;;
41631;SDS011;37452;51.938;4.624;2023-08-30T12:16:42;8.85;;;1.80;;
41631;SDS011;37452;51.938;4.624;2023-08-30T12:19:11;3.58;;;1.20;;
41631;SDS011;37452;51.938;4.624;2023-08-30T12:21:43;11.52;;;1.48;;
41631;SDS011;37452;51.938;4.624;2023-08-30T12:24:09;6.70;;;1.38;;
41631;SDS011;37452;51.938;4.624;2023-08-30T12:26:34;7.30;;;1.67;;
41631;SDS011;37452;51.938;4.624;2023-08-30T12:29:02;5.93;;;1.50;;
41631;SDS011;37452;51.938;4.624;2023-08-30T12:31:28;7.22;;;1.40;;
41631;SDS011;37452;51.938;4.624;2023-08-30T12:33:53;5.68;;;1.58;;
41631;SDS011;37452;51.938;4.624;2023-08-30T12:36:19;4.68;;;1.15;;
41631;SDS011;37452;51.938;4.624;2023-08-30T12:38:44;4.53;;;1.30;;
41631;SDS011;37452;51.938;4.624;2023-08-30T12:41:10;5.63;;;1.42;;
41631;SDS011;37452;51.938;4.624;2023-08-30T12:43:35;6.43;;;1.40;;
41631;SDS011;37452;51.938;4.624;2023-08-30T12:46:01;6.53;;;1.20;;
41631;SDS011;37452;51.938;4.624;2023-08-30T12:48:26;4.40;;;1.38;;
41631;SDS011;37452;51.938;4.624;2023-08-30T12:50:51;7.57;;;1.17;;
41631;SDS011;37452;51.938;4.624;2023-08-30T12:53:17;5.00;;;1.45;;
41631;SDS011;37452;51.938;4.624;2023-08-30T12:55:42;5.13;;;1.40;;
41631;SDS011;37452;51.938;4.624;2023-08-30T12:58:08;5.38;;;1.10;;
41631;SDS011;37452;51.938;4.624;2023-08-30T13:00:34;5.43;;;1.23;;
41631;SDS011;37452;51.938;4.624;2023-08-30T13:03:00;6.45;;;1.40;;
41631;SDS011;37452;51.938;4.624;2023-08-30T13:05:26;7.32;;;1.40;;
41631;SDS011;37452;51.938;4.624;2023-08-30T13:07:51;4.53;;;1.27;;
41631;SDS011;37452;51.938;4.624;2023-08-30T13:10:17;3.60;;;0.93;;
41631;SDS011;37452;51.938;4.624;2023-08-30T13:12:42;2.42;;;0.98;;
41631;SDS011;37452;51.938;4.624;2023-08-30T13:15:08;4.65;;;1.08;;
41631;SDS011;37452;51.938;4.624;2023-08-30T13:17:34;7.30;;;1.40;;
41631;SDS011;37452;51.938;4.624;2023-08-30T13:19:59;3.95;;;1.10;;
41631;SDS011;37452;51.938;4.624;2023-08-30T13:22:26;6.13;;;1.10;;
41631;SDS011;37452;51.938;4.624;2023-08-30T13:24:52;10.88;;;1.48;;
41631;SDS011;37452;51.938;4.624;2023-08-30T13:27:18;3.72;;;0.98;;
41631;SDS011;37452;51.938;4.624;2023-08-30T13:29:44;5.90;;;1.05;;
41631;SDS011;37452;51.938;4.624;2023-08-30T13:32:09;3.30;;;1.00;;
41631;SDS011;37452;51.938;4.624;2023-08-30T13:34:35;6.50;;;1.00;;
41631;SDS011;37452;51.938;4.624;2023-08-30T13:37:00;3.05;;;1.00;;
41631;SDS011;37452;51.938;4.624;2023-08-30T13:39:25;5.03;;;1.00;;
41631;SDS011;37452;51.938;4.624;2023-08-30T13:41:51;5.57;;;1.17;;
41631;SDS011;37452;51.938;4.624;2023-08-30T13:44:16;5.30;;;1.25;;
41631;SDS011;37452;51.938;4.624;2023-08-30T13:46:43;2.80;;;0.88;;
41631;SDS011;37452;51.938;4.624;2023-08-30T13:49:09;4.28;;;1.00;;
41631;SDS011;37452;51.938;4.624;2023-08-30T13:51:35;4.38;;;1.00;;
41631;SDS011;37452;51.938;4.624;2023-08-30T13:54:01;3.88;;;0.70;;
41631;SDS011;37452;51.938;4.624;2023-08-30T13:56:26;9.32;;;1.17;;
41631;SDS011;37452;51.938;4.624;2023-08-30T13:58:52;2.38;;;0.93;;
41631;SDS011;37452;51.938;4.624;2023-08-30T14:01:17;4.68;;;1.00;;
41631;SDS011;37452;51.938;4.624;2023-08-30T14:03:43;4.82;;;1.05;;
41631;SDS011;37452;51.938;4.624;2023-08-30T14:06:08;5.70;;;0.70;;
41631;SDS011;37452;51.938;4.624;2023-08-30T14:08:34;4.53;;;1.10;;
41631;SDS011;37452;51.938;4.624;2023-08-30T14:10:59;2.97;;;0.68;;
41631;SDS011;37452;51.938;4.624;2023-08-30T14:13:25;4.93;;;1.50;;
41631;SDS011;37452;51.938;4.624;2023-08-30T14:15:53;8.55;;;1.05;;
41631;SDS011;37452;51.938;4.624;2023-08-30T14:18:18;4.93;;;1.13;;
41631;SDS011;37452;51.938;4.624;2023-08-30T14:20:44;7.65;;;0.85;;
41631;SDS011;37452;51.938;4.624;2023-08-30T14:23:09;3.78;;;0.98;;
41631;SDS011;37452;51.938;4.624;2023-08-30T14:25:35;3.42;;;0.93;;
41631;SDS011;37452;51.938;4.624;2023-08-30T14:28:01;4.65;;;0.88;;
41631;SDS011;37452;51.938;4.624;2023-08-30T14:30:27;4.50;;;1.17;;
41631;SDS011;37452;51.938;4.624;2023-08-30T14:32:52;3.90;;;1.00;;
41631;SDS011;37452;51.938;4.624;2023-08-30T14:35:18;6.70;;;1.40;;
41631;SDS011;37452;51.938;4.624;2023-08-30T14:37:49;4.95;;;0.55;;
41631;SDS011;37452;51.938;4.624;2023-08-30T14:40:15;5.32;;;1.08;;
41631;SDS011;37452;51.938;4.624;2023-08-30T14:42:41;4.10;;;0.93;;
41631;SDS011;37452;51.938;4.624;2023-08-30T14:45:06;5.35;;;1.02;;